sensor_id;sensor_type;location;lat;lon;timestamp;pressure;altitude;pressure_sealevel;temperature;humidity
73457;BME280;61691;53.072;6.582;2024-01-15T00:02:03;99920.78;;;1.83;86.06
73457;BME280;61691;53.072;6.582;2024-01-15T00:04:30;99911.91;;;1.85;86.29
73457;BME280;61691;53.072;6.582;2024-01-15T00:06:57;99926.25;;;1.92;86.19
73457;BME280;61691;53.072;6.582;2024-01-15T00:09:24;99924.75;;;1.88;86.49
73457;BME280;61691;53.072;6.582;2024-01-15T00:11:50;99952.50;;;2.04;86.22
73457;BME280;61691;53.072;6.582;2024-01-15T00:14:17;99927.94;;;2.06;85.92
73457;BME280;61691;53.072;6.582;2024-01-15T00:16:47;99916.22;;;1.99;86.24
73457;BME280;61691;53.072;6.582;2024-01-15T00:19:16;99930.03;;;2.14;85.60
73457;BME280;61691;53.072;6.582;2024-01-15T00:21:43;99893.94;;;1.93;85.71
73457;BME280;61691;53.072;6.582;2024-01-15T00:24:10;99931.09;;;2.24;85.65
73457;BME280;61691;53.072;6.582;2024-01-15T00:26:37;99922.09;;;2.28;85.68
73457;BME280;61691;53.072;6.582;2024-01-15T00:29:04;99919.88;;;2.22;85.81
73457;BME280;61691;53.072;6.582;2024-01-15T00:31:30;99915.69;;;2.19;85.32
73457;BME280;61691;53.072;6.582;2024-01-15T00:33:57;99926.19;;;2.32;85.45
73457;BME280;61691;53.072;6.582;2024-01-15T00:36:25;99925.63;;;2.27;85.75
73457;BME280;61691;53.072;6.582;2024-01-15T00:38:53;99888.81;;;2.05;85.76
73457;BME280;61691;53.072;6.582;2024-01-15T00:41:20;99911.84;;;2.25;85.75
73457;BME280;61691;53.072;6.582;2024-01-15T00:43:47;99905.78;;;2.24;86.03
73457;BME280;61691;53.072;6.582;2024-01-15T00:46:15;99894.47;;;2.24;85.83
73457;BME280;61691;53.072;6.582;2024-01-15T00:48:42;99885.78;;;2.11;85.90
73457;BME280;61691;53.072;6.582;2024-01-15T00:51:09;99907.25;;;2.16;85.63
73457;BME280;61691;53.072;6.582;2024-01-15T00:53:36;99904.91;;;2.11;85.78
73457;BME280;61691;53.072;6.582;2024-01-15T00:56:03;99917.59;;;2.17;85.79
73457;BME280;61691;53.072;6.582;2024-01-15T00:58:30;99900.84;;;2.20;85.62
73457;BME280;61691;53.072;6.582;2024-01-15T01:00:56;99896.78;;;2.16;85.70
73457;BME280;61691;53.072;6.582;2024-01-15T01:03:23;99880.47;;;2.12;86.13
73457;BME280;61691;53.072;6.582;2024-01-15T01:05:50;99883.16;;;2.11;86.04
73457;BME280;61691;53.072;6.582;2024-01-15T01:08:17;99850.97;;;1.98;85.72
73457;BME280;61691;53.072;6.582;2024-01-15T01:10:44;99869.59;;;2.06;86.11
73457;BME280;61691;53.072;6.582;2024-01-15T01:13:11;99865.53;;;2.02;86.12
73457;BME280;61691;53.072;6.582;2024-01-15T01:15:37;99854.75;;;1.93;86.18
73457;BME280;61691;53.072;6.582;2024-01-15T01:18:05;99860.50;;;1.99;86.27
73457;BME280;61691;53.072;6.582;2024-01-15T01:20:32;99869.59;;;2.06;86.38
73457;BME280;61691;53.072;6.582;2024-01-15T01:22:59;99866.22;;;2.04;86.36
73457;BME280;61691;53.072;6.582;2024-01-15T01:25:27;99859.97;;;1.93;86.34
73457;BME280;61691;53.072;6.582;2024-01-15T01:27:53;99848.03;;;1.89;86.57
73457;BME280;61691;53.072;6.582;2024-01-15T01:30:20;99850.56;;;1.91;86.32
73457;BME280;61691;53.072;6.582;2024-01-15T01:32:47;99858.91;;;1.96;86.07
73457;BME280;61691;53.072;6.582;2024-01-15T01:35:13;99835.91;;;1.88;86.67
73457;BME280;61691;53.072;6.582;2024-01-15T01:37:40;99840.50;;;1.98;86.64
73457;BME280;61691;53.072;6.582;2024-01-15T01:40:07;99836.97;;;1.99;86.89
73457;BME280;61691;53.072;6.582;2024-01-15T01:42:34;99825.25;;;1.91;87.14
73457;BME280;61691;53.072;6.582;2024-01-15T01:45:01;99836.34;;;1.95;86.82
73457;BME280;61691;53.072;6.582;2024-01-15T01:47:28;99839.47;;;2.00;87.11
73457;BME280;61691;53.072;6.582;2024-01-15T01:49:55;99823.47;;;1.92;87.34
73457;BME280;61691;53.072;6.582;2024-01-15T01:52:22;99825.25;;;1.91;87.31
73457;BME280;61691;53.072;6.582;2024-01-15T01:54:49;99811.44;;;1.89;87.49
73457;BME280;61691;53.072;6.582;2024-01-15T01:57:18;99823.56;;;2.03;87.44
73457;BME280;61691;53.072;6.582;2024-01-15T01:59:45;99791.91;;;1.82;87.46
73457;BME280;61691;53.072;6.582;2024-01-15T02:02:13;99780.94;;;1.77;87.46
73457;BME280;61691;53.072;6.582;2024-01-15T02:04:41;99815.44;;;1.95;87.17
73457;BME280;61691;53.072;6.582;2024-01-15T02:07:08;99815.84;;;1.89;87.53
73457;BME280;61691;53.072;6.582;2024-01-15T02:09:36;99813.34;;;1.87;87.61
73457;BME280;61691;53.072;6.582;2024-01-15T02:12:03;99810.19;;;1.82;87.32
73457;BME280;61691;53.072;6.582;2024-01-15T02:14:30;99814.81;;;1.91;87.30
73457;BME280;61691;53.072;6.582;2024-01-15T02:16:57;99813.47;;;1.86;87.77
73457;BME280;61691;53.072;6.582;2024-01-15T02:19:24;99835.28;;;1.98;87.35
73457;BME280;61691;53.072;6.582;2024-01-15T02:21:51;99819.84;;;1.94;87.41
73457;BME280;61691;53.072;6.582;2024-01-15T02:24:18;99827.44;;;1.98;87.58
73457;BME280;61691;53.072;6.582;2024-01-15T02:26:45;99821.91;;;1.89;87.44
73457;BME280;61691;53.072;6.582;2024-01-15T02:29:12;99788.47;;;1.69;87.55
73457;BME280;61691;53.072;6.582;2024-01-15T02:31:39;99814.41;;;1.85;87.68
73457;BME280;61691;53.072;6.582;2024-01-15T02:34:06;99818.59;;;1.87;87.47
73457;BME280;61691;53.072;6.582;2024-01-15T02:36:33;99804.66;;;1.74;87.73
73457;BME280;61691;53.072;6.582;2024-01-15T02:38:59;99813.56;;;1.84;87.55
73457;BME280;61691;53.072;6.582;2024-01-15T02:41:26;99816.91;;;1.86;87.82
73457;BME280;61691;53.072;6.582;2024-01-15T02:43:53;99756.91;;;1.60;87.60
73457;BME280;61691;53.072;6.582;2024-01-15T02:46:19;99807.47;;;1.97;87.83
73457;BME280;61691;53.072;6.582;2024-01-15T02:48:46;99817.63;;;2.01;87.76
73457;BME280;61691;53.072;6.582;2024-01-15T02:51:13;99820.16;;;2.03;87.83
73457;BME280;61691;53.072;6.582;2024-01-15T02:53:40;99806.44;;;1.99;87.55
73457;BME280;61691;53.072;6.582;2024-01-15T02:56:07;99803.19;;;1.95;87.59
73457;BME280;61691;53.072;6.582;2024-01-15T02:58:34;99830.38;;;2.06;87.88
73457;BME280;61691;53.072;6.582;2024-01-15T03:01:01;99806.97;;;1.91;87.72
73457;BME280;61691;53.072;6.582;2024-01-15T03:03:28;99820.34;;;2.00;87.82
73457;BME280;61691;53.072;6.582;2024-01-15T03:05:55;99821.09;;;2.02;87.99
73457;BME280;61691;53.072;6.582;2024-01-15T03:08:22;99814.38;;;1.98;87.95
73457;BME280;61691;53.072;6.582;2024-01-15T03:10:49;99821.09;;;2.02;87.99
73457;BME280;61691;53.072;6.582;2024-01-15T03:13:16;99835.06;;;2.13;88.12
73457;BME280;61691;53.072;6.582;2024-01-15T03:15:43;99831.19;;;2.19;88.11
73457;BME280;61691;53.072;6.582;2024-01-15T03:18:10;99826.19;;;2.16;87.82
73457;BME280;61691;53.072;6.582;2024-01-15T03:20:37;99819.72;;;2.09;87.83
73457;BME280;61691;53.072;6.582;2024-01-15T03:23:03;99797.03;;;1.97;87.89
73457;BME280;61691;53.072;6.582;2024-01-15T03:25:30;99844.06;;;2.22;87.90
73457;BME280;61691;53.072;6.582;2024-01-15T03:27:57;99829.25;;;2.10;87.83
73457;BME280;61691;53.072;6.582;2024-01-15T03:30:23;99820.66;;;2.08;87.88
73457;BME280;61691;53.072;6.582;2024-01-15T03:32:50;99824.22;;;2.07;88.05
73457;BME280;61691;53.072;6.582;2024-01-15T03:35:17;99847.63;;;2.21;87.81
73457;BME280;61691;53.072;6.582;2024-01-15T03:37:44;99846.47;;;2.25;87.75
73457;BME280;61691;53.072;6.582;2024-01-15T03:40:11;99841.97;;;2.27;88.08
73457;BME280;61691;53.072;6.582;2024-01-15T03:42:38;99838.41;;;2.28;87.81
73457;BME280;61691;53.072;6.582;2024-01-15T03:45:05;99809.97;;;2.11;87.79
73457;BME280;61691;53.072;6.582;2024-01-15T03:47:32;99829.41;;;2.19;87.76
73457;BME280;61691;53.072;6.582;2024-01-15T03:49:58;99826.19;;;2.16;87.96
73457;BME280;61691;53.072;6.582;2024-01-15T03:52:25;99835.72;;;2.17;87.62
73457;BME280;61691;53.072;6.582;2024-01-15T03:54:52;99821.78;;;2.04;87.87
73457;BME280;61691;53.072;6.582;2024-01-15T03:57:19;99843.94;;;2.11;87.71
73457;BME280;61691;53.072;6.582;2024-01-15T03:59:45;99829.00;;;2.13;88.12
73457;BME280;61691;53.072;6.582;2024-01-15T04:02:13;99820.53;;;2.22;87.76
73457;BME280;61691;53.072;6.582;2024-01-15T04:04:42;99813.97;;;2.16;88.07
73457;BME280;61691;53.072;6.582;2024-01-15T04:07:10;99798.38;;;2.15;87.67
73457;BME280;61691;53.072;6.582;2024-01-15T04:09:37;99814.66;;;2.31;87.66
73457;BME280;61691;53.072;6.582;2024-01-15T04:12:04;99797.09;;;2.20;87.91
73457;BME280;61691;53.072;6.582;2024-01-15T04:14:31;99822.28;;;2.34;87.72
73457;BME280;61691;53.072;6.582;2024-01-15T04:16:57;99814.78;;;2.29;88.02
73457;BME280;61691;53.072;6.582;2024-01-15T04:19:24;99818.72;;;2.35;87.67
73457;BME280;61691;53.072;6.582;2024-01-15T04:21:51;99790.19;;;2.19;87.96
73457;BME280;61691;53.072;6.582;2024-01-15T04:24:18;99827.75;;;2.31;88.01
73457;BME280;61691;53.072;6.582;2024-01-15T04:26:45;99859.94;;;2.44;87.46
73457;BME280;61691;53.072;6.582;2024-01-15T04:29:12;99861.81;;;2.42;87.06
73457;BME280;61691;53.072;6.582;2024-01-15T04:31:38;99786.56;;;1.97;86.53
73457;BME280;61691;53.072;6.582;2024-01-15T04:34:05;99860.81;;;2.32;87.11
73457;BME280;61691;53.072;6.582;2024-01-15T04:36:38;99835.72;;;2.17;86.99
73457;BME280;61691;53.072;6.582;2024-01-15T04:39:06;99811.25;;;2.05;86.88
73457;BME280;61691;53.072;6.582;2024-01-15T04:41:33;99791.94;;;1.95;86.92
73457;BME280;61691;53.072;6.582;2024-01-15T04:44:00;99819.63;;;2.10;86.94
73457;BME280;61691;53.072;6.582;2024-01-15T04:46:27;99804.47;;;2.03;87.11
73457;BME280;61691;53.072;6.582;2024-01-15T04:48:54;99792.44;;;1.87;87.19
73457;BME280;61691;53.072;6.582;2024-01-15T04:51:21;99800.41;;;1.86;86.82
73457;BME280;61691;53.072;6.582;2024-01-15T04:53:48;99787.22;;;1.75;87.07
73457;BME280;61691;53.072;6.582;2024-01-15T04:56:15;99791.81;;;1.71;86.74
73457;BME280;61691;53.072;6.582;2024-01-15T04:58:41;99792.75;;;1.70;87.16
73457;BME280;61691;53.072;6.582;2024-01-15T05:01:08;99812.50;;;1.74;86.92
73457;BME280;61691;53.072;6.582;2024-01-15T05:03:35;99797.25;;;1.68;87.18
73457;BME280;61691;53.072;6.582;2024-01-15T05:06:02;99799.09;;;1.66;86.93
73457;BME280;61691;53.072;6.582;2024-01-15T05:08:30;99801.13;;;1.63;86.78
73457;BME280;61691;53.072;6.582;2024-01-15T05:10:56;99795.78;;;1.64;87.16
73457;BME280;61691;53.072;6.582;2024-01-15T05:13:23;99791.69;;;1.60;86.69
73457;BME280;61691;53.072;6.582;2024-01-15T05:15:49;99767.16;;;1.50;87.20
73457;BME280;61691;53.072;6.582;2024-01-15T05:18:16;99776.63;;;1.51;87.26
73457;BME280;61691;53.072;6.582;2024-01-15T05:20:44;99775.28;;;1.45;86.98
73457;BME280;61691;53.072;6.582;2024-01-15T05:23:11;99781.34;;;1.46;87.04
73457;BME280;61691;53.072;6.582;2024-01-15T05:25:37;99776.31;;;1.43;87.13
73457;BME280;61691;53.072;6.582;2024-01-15T05:28:05;99783.84;;;1.47;86.99
73457;BME280;61691;53.072;6.582;2024-01-15T05:30:32;99784.69;;;1.48;87.44
73457;BME280;61691;53.072;6.582;2024-01-15T05:32:59;99771.94;;;1.43;87.21
73457;BME280;61691;53.072;6.582;2024-01-15T05:35:27;99760.03;;;1.39;87.15
73457;BME280;61691;53.072;6.582;2024-01-15T05:37:53;99780.00;;;1.53;87.27
73457;BME280;61691;53.072;6.582;2024-01-15T05:40:20;99717.19;;;1.16;87.01
73457;BME280;61691;53.072;6.582;2024-01-15T05:42:47;99790.25;;;1.56;87.26
73457;BME280;61691;53.072;6.582;2024-01-15T05:45:14;99775.94;;;1.49;87.18
73457;BME280;61691;53.072;6.582;2024-01-15T05:47:41;99783.63;;;1.50;87.57
73457;BME280;61691;53.072;6.582;2024-01-15T05:50:08;99789.50;;;1.54;87.46
73457;BME280;61691;53.072;6.582;2024-01-15T05:52:36;99788.06;;;1.50;87.53
73457;BME280;61691;53.072;6.582;2024-01-15T05:55:02;99769.22;;;1.45;87.10
73457;BME280;61691;53.072;6.582;2024-01-15T05:57:29;99747.31;;;1.35;87.40
73457;BME280;61691;53.072;6.582;2024-01-15T05:59:56;99745.22;;;1.40;87.00
73457;BME280;61691;53.072;6.582;2024-01-15T06:02:23;99754.28;;;1.47;87.22
73457;BME280;61691;53.072;6.582;2024-01-15T06:04:49;99764.66;;;1.48;87.09
73457;BME280;61691;53.072;6.582;2024-01-15T06:07:16;99720.53;;;1.19;87.31
73457;BME280;61691;53.072;6.582;2024-01-15T06:09:43;99750.63;;;1.37;87.49
73457;BME280;61691;53.072;6.582;2024-01-15T06:12:10;99770.72;;;1.49;87.30
73457;BME280;61691;53.072;6.582;2024-01-15T06:14:36;99767.97;;;1.50;87.17
73457;BME280;61691;53.072;6.582;2024-01-15T06:17:03;99785.72;;;1.58;87.36
73457;BME280;61691;53.072;6.582;2024-01-15T06:19:30;99785.63;;;1.60;87.55
73457;BME280;61691;53.072;6.582;2024-01-15T06:21:57;99783.66;;;1.63;87.61
73457;BME280;61691;53.072;6.582;2024-01-15T06:24:24;99748.88;;;1.50;87.64
73457;BME280;61691;53.072;6.582;2024-01-15T06:26:50;99756.06;;;1.59;87.88
73457;BME280;61691;53.072;6.582;2024-01-15T06:29:18;99779.47;;;1.73;87.72
73457;BME280;61691;53.072;6.582;2024-01-15T06:31:45;99775.91;;;1.74;87.49
73457;BME280;61691;53.072;6.582;2024-01-15T06:34:11;99724.31;;;1.40;87.70
73457;BME280;61691;53.072;6.582;2024-01-15T06:36:39;99779.28;;;1.76;87.67
73457;BME280;61691;53.072;6.582;2024-01-15T06:39:05;99718.16;;;1.41;87.35
73457;BME280;61691;53.072;6.582;2024-01-15T06:41:32;99746.56;;;1.58;87.36
73457;BME280;61691;53.072;6.582;2024-01-15T06:43:59;99774.16;;;1.75;87.87
73457;BME280;61691;53.072;6.582;2024-01-15T06:46:26;99774.25;;;1.73;87.53
73457;BME280;61691;53.072;6.582;2024-01-15T06:48:52;99771.84;;;1.70;87.50
73457;BME280;61691;53.072;6.582;2024-01-15T06:51:19;99771.63;;;1.73;87.61
73457;BME280;61691;53.072;6.582;2024-01-15T06:53:46;99774.25;;;1.73;87.60
73457;BME280;61691;53.072;6.582;2024-01-15T06:56:12;99779.28;;;1.76;87.71
73457;BME280;61691;53.072;6.582;2024-01-15T06:58:39;99768.91;;;1.75;87.28
73457;BME280;61691;53.072;6.582;2024-01-15T07:01:06;99759.84;;;1.68;87.63
73457;BME280;61691;53.072;6.582;2024-01-15T07:03:34;99763.50;;;1.65;87.57
73457;BME280;61691;53.072;6.582;2024-01-15T07:06:01;99758.16;;;1.54;87.51
73457;BME280;61691;53.072;6.582;2024-01-15T07:08:28;99769.88;;;1.61;87.59
73457;BME280;61691;53.072;6.582;2024-01-15T07:10:55;99774.16;;;1.62;87.43
73457;BME280;61691;53.072;6.582;2024-01-15T07:13:22;99762.03;;;1.61;87.38
73457;BME280;61691;53.072;6.582;2024-01-15T07:15:49;99759.63;;;1.58;87.66
73457;BME280;61691;53.072;6.582;2024-01-15T07:18:15;99772.06;;;1.67;87.60
73457;BME280;61691;53.072;6.582;2024-01-15T07:20:43;99775.41;;;1.69;87.72
73457;BME280;61691;53.072;6.582;2024-01-15T07:23:10;99750.31;;;1.54;87.88
73457;BME280;61691;53.072;6.582;2024-01-15T07:25:37;99760.25;;;1.62;87.68
73457;BME280;61691;53.072;6.582;2024-01-15T07:28:04;99744.16;;;1.55;87.24
73457;BME280;61691;53.072;6.582;2024-01-15T07:30:31;99732.66;;;1.45;87.36
73457;BME280;61691;53.072;6.582;2024-01-15T07:32:58;99761.50;;;1.56;87.59
73457;BME280;61691;53.072;6.582;2024-01-15T07:35:24;99760.69;;;1.55;87.24
73457;BME280;61691;53.072;6.582;2024-01-15T07:37:51;99763.59;;;1.51;87.44
73457;BME280;61691;53.072;6.582;2024-01-15T07:40:18;99771.84;;;1.45;87.31
73457;BME280;61691;53.072;6.582;2024-01-15T07:42:45;99764.22;;;1.42;87.53
73457;BME280;61691;53.072;6.582;2024-01-15T07:45:12;99776.31;;;1.43;87.49
73457;BME280;61691;53.072;6.582;2024-01-15T07:47:39;99784.88;;;1.45;87.45
73457;BME280;61691;53.072;6.582;2024-01-15T07:50:06;99778.72;;;1.46;87.41
73457;BME280;61691;53.072;6.582;2024-01-15T07:52:33;99787.00;;;1.52;87.71
73457;BME280;61691;53.072;6.582;2024-01-15T07:55:00;99777.38;;;1.53;87.85
73457;BME280;61691;53.072;6.582;2024-01-15T07:57:27;99795.56;;;1.67;87.74
73457;BME280;61691;53.072;6.582;2024-01-15T07:59:54;99798.91;;;1.69;87.07
73457;BME280;61691;53.072;6.582;2024-01-15T08:02:21;99778.44;;;1.63;87.61
73457;BME280;61691;53.072;6.582;2024-01-15T08:04:48;99774.66;;;1.67;87.38
73457;BME280;61691;53.072;6.582;2024-01-15T08:07:15;99791.19;;;1.80;87.28
73457;BME280;61691;53.072;6.582;2024-01-15T08:09:42;99767.56;;;1.69;87.58
73457;BME280;61691;53.072;6.582;2024-01-15T08:12:09;99784.31;;;1.79;87.66
73457;BME280;61691;53.072;6.582;2024-01-15T08:14:36;99759.53;;;1.72;87.56
73457;BME280;61691;53.072;6.582;2024-01-15T08:17:03;99768.81;;;1.76;87.36
73457;BME280;61691;53.072;6.582;2024-01-15T08:19:30;99758.69;;;1.72;87.71
73457;BME280;61691;53.072;6.582;2024-01-15T08:21:58;99777.91;;;1.83;87.45
73457;BME280;61691;53.072;6.582;2024-01-15T08:24:25;99762.03;;;1.74;87.17
73457;BME280;61691;53.072;6.582;2024-01-15T08:26:52;99775.53;;;1.80;87.24
73457;BME280;61691;53.072;6.582;2024-01-15T08:29:18;99705.09;;;1.41;86.98
73457;BME280;61691;53.072;6.582;2024-01-15T08:31:47;99768.72;;;1.78;86.97
73457;BME280;61691;53.072;6.582;2024-01-15T08:34:14;99757.97;;;1.70;86.90
73457;BME280;61691;53.072;6.582;2024-01-15T08:36:41;99741.88;;;1.63;87.15
73457;BME280;61691;53.072;6.582;2024-01-15T08:39:08;99770.69;;;1.74;87.29
73457;BME280;61691;53.072;6.582;2024-01-15T08:41:36;99775.53;;;1.80;87.19
73457;BME280;61691;53.072;6.582;2024-01-15T08:44:02;99763.41;;;1.79;87.32
73457;BME280;61691;53.072;6.582;2024-01-15T08:46:29;99762.47;;;1.80;87.15
73457;BME280;61691;53.072;6.582;2024-01-15T08:48:56;99770.06;;;1.83;87.37
73457;BME280;61691;53.072;6.582;2024-01-15T08:51:23;99687.53;;;1.43;86.97
73457;BME280;61691;53.072;6.582;2024-01-15T08:53:50;99778.63;;;1.98;86.90
73457;BME280;61691;53.072;6.582;2024-01-15T08:56:17;99778.84;;;2.08;87.10
73457;BME280;61691;53.072;6.582;2024-01-15T08:58:43;99785.09;;;2.18;87.47
73457;BME280;61691;53.072;6.582;2024-01-15T09:01:12;99791.34;;;2.28;87.05
73457;BME280;61691;53.072;6.582;2024-01-15T09:03:40;99756.66;;;2.13;86.88
73457;BME280;61691;53.072;6.582;2024-01-15T09:06:10;99797.59;;;2.38;86.58
73457;BME280;61691;53.072;6.582;2024-01-15T09:08:37;99715.81;;;2.00;86.45
73457;BME280;61691;53.072;6.582;2024-01-15T09:11:04;99737.59;;;2.24;86.39
73457;BME280;61691;53.072;6.582;2024-01-15T09:13:31;99775.81;;;2.50;86.17
73457;BME280;61691;53.072;6.582;2024-01-15T09:15:58;99733.09;;;2.26;85.85
73457;BME280;61691;53.072;6.582;2024-01-15T09:18:25;99746.34;;;2.36;85.52
73457;BME280;61691;53.072;6.582;2024-01-15T09:20:52;99763.66;;;2.49;86.00
73457;BME280;61691;53.072;6.582;2024-01-15T09:23:19;99766.19;;;2.51;85.81
73457;BME280;61691;53.072;6.582;2024-01-15T09:25:46;99756.75;;;2.48;86.01
73457;BME280;61691;53.072;6.582;2024-01-15T09:28:14;99740.06;;;2.38;85.45
73457;BME280;61691;53.072;6.582;2024-01-15T09:30:41;99760.09;;;2.50;85.32
73457;BME280;61691;53.072;6.582;2024-01-15T09:33:08;99760.34;;;2.47;85.74
73457;BME280;61691;53.072;6.582;2024-01-15T09:35:35;99748.84;;;2.37;85.27
73457;BME280;61691;53.072;6.582;2024-01-15T09:38:02;99767.97;;;2.50;85.71
73457;BME280;61691;53.072;6.582;2024-01-15T09:40:31;99747.38;;;2.46;85.55
73457;BME280;61691;53.072;6.582;2024-01-15T09:43:00;99753.03;;;2.63;85.94
73457;BME280;61691;53.072;6.582;2024-01-15T09:45:28;99751.72;;;2.58;85.41
73457;BME280;61691;53.072;6.582;2024-01-15T09:47:55;99778.66;;;2.71;85.02
73457;BME280;61691;53.072;6.582;2024-01-15T09:50:22;99764.19;;;2.54;85.01
73457;BME280;61691;53.072;6.582;2024-01-15T09:52:49;99768.91;;;2.49;84.96
73457;BME280;61691;53.072;6.582;2024-01-15T09:55:17;99763.91;;;2.46;85.03
73457;BME280;61691;53.072;6.582;2024-01-15T09:57:44;99755.75;;;2.38;84.93
73457;BME280;61691;53.072;6.582;2024-01-15T10:00:13;99771.75;;;2.46;84.94
73457;BME280;61691;53.072;6.582;2024-01-15T10:02:41;99757.53;;;2.38;84.92
73457;BME280;61691;53.072;6.582;2024-01-15T10:05:08;99757.44;;;2.39;85.10
73457;BME280;61691;53.072;6.582;2024-01-15T10:07:36;99768.78;;;2.51;85.46
73457;BME280;61691;53.072;6.582;2024-01-15T10:10:04;99744.13;;;2.42;85.26
73457;BME280;61691;53.072;6.582;2024-01-15T10:12:31;99755.94;;;2.48;85.09
73457;BME280;61691;53.072;6.582;2024-01-15T10:14:58;99763.47;;;2.52;85.02
73457;BME280;61691;53.072;6.582;2024-01-15T10:17:25;99781.59;;;2.66;85.14
73457;BME280;61691;53.072;6.582;2024-01-15T10:19:54;99754.50;;;2.67;85.62
73457;BME280;61691;53.072;6.582;2024-01-15T10:22:22;99765.25;;;2.76;85.37
73457;BME280;61691;53.072;6.582;2024-01-15T10:24:49;99766.88;;;2.89;85.81
73457;BME280;61691;53.072;6.582;2024-01-15T10:27:16;99748.44;;;2.91;85.55
73457;BME280;61691;53.072;6.582;2024-01-15T10:29:43;99739.84;;;2.89;85.23
73457;BME280;61691;53.072;6.582;2024-01-15T10:32:11;99748.59;;;3.00;84.99
73457;BME280;61691;53.072;6.582;2024-01-15T10:34:39;99763.38;;;3.13;84.95
73457;BME280;61691;53.072;6.582;2024-01-15T10:37:08;99754.69;;;3.12;85.39
73457;BME280;61691;53.072;6.582;2024-01-15T10:39:35;99736.22;;;3.02;84.93
73457;BME280;61691;53.072;6.582;2024-01-15T10:42:04;99720.78;;;2.87;84.64
73457;BME280;61691;53.072;6.582;2024-01-15T10:44:31;99753.59;;;3.03;84.49
73457;BME280;61691;53.072;6.582;2024-01-15T10:46:58;99758.00;;;3.03;84.94
73457;BME280;61691;53.072;6.582;2024-01-15T10:49:24;99743.22;;;3.02;85.01
73457;BME280;61691;53.072;6.582;2024-01-15T10:52:00;99733.69;;;3.01;84.90
73457;BME280;61691;53.072;6.582;2024-01-15T10:54:28;99729.25;;;3.14;85.45
73457;BME280;61691;53.072;6.582;2024-01-15T10:56:56;99748.56;;;3.35;85.15
73457;BME280;61691;53.072;6.582;2024-01-15T10:59:23;99733.56;;;3.26;84.61
73457;BME280;61691;53.072;6.582;2024-01-15T11:01:51;99733.81;;;3.23;84.35
73457;BME280;61691;53.072;6.582;2024-01-15T11:04:22;99735.22;;;3.27;84.28
73457;BME280;61691;53.072;6.582;2024-01-15T11:06:52;99757.16;;;3.37;84.25
73457;BME280;61691;53.072;6.582;2024-01-15T11:09:23;99752.03;;;3.36;84.04
73457;BME280;61691;53.072;6.582;2024-01-15T11:11:54;99765.50;;;3.42;84.46
73457;BME280;61691;53.072;6.582;2024-01-15T11:14:39;99766.09;;;3.46;84.47
73457;BME280;61691;53.072;6.582;2024-01-15T11:17:06;99727.94;;;3.20;84.13
73457;BME280;61691;53.072;6.582;2024-01-15T11:19:48;99766.66;;;3.38;84.23
73457;BME280;61691;53.072;6.582;2024-01-15T11:25:22;99771.13;;;3.14;83.97
73457;BME280;61691;53.072;6.582;2024-01-15T11:27:52;99758.06;;;2.90;83.86
73457;BME280;61691;53.072;6.582;2024-01-15T11:30:25;99778.16;;;2.90;84.09
73457;BME280;61691;53.072;6.582;2024-01-15T11:32:53;99772.06;;;2.78;83.78
73457;BME280;61691;53.072;6.582;2024-01-15T11:35:20;99778.00;;;2.80;83.77
73457;BME280;61691;53.072;6.582;2024-01-15T11:40:23;99767.59;;;2.67;84.16
73457;BME280;61691;53.072;6.582;2024-01-15T11:43:06;99772.19;;;2.64;84.41
73457;BME280;61691;53.072;6.582;2024-01-15T11:45:36;99788.31;;;2.70;84.53
73457;BME280;61691;53.072;6.582;2024-01-15T11:50:43;99787.78;;;2.65;84.47
73457;BME280;61691;53.072;6.582;2024-01-15T11:53:17;99792.06;;;2.66;84.44
73457;BME280;61691;53.072;6.582;2024-01-15T11:55:45;99799.31;;;2.63;84.44
73457;BME280;61691;53.072;6.582;2024-01-15T11:58:12;99707.53;;;2.06;84.54
73457;BME280;61691;53.072;6.582;2024-01-15T12:00:44;99804.47;;;2.52;84.56
73457;BME280;61691;53.072;6.582;2024-01-15T12:03:12;99824.97;;;2.58;84.80
73457;BME280;61691;53.072;6.582;2024-01-15T12:05:39;99826.88;;;2.43;84.67
73457;BME280;61691;53.072;6.582;2024-01-15T12:08:07;99832.34;;;2.40;84.65
73457;BME280;61691;53.072;6.582;2024-01-15T12:10:38;99777.78;;;1.98;84.43
73457;BME280;61691;53.072;6.582;2024-01-15T12:13:12;99824.81;;;2.23;84.62
73457;BME280;61691;53.072;6.582;2024-01-15T12:15:45;99831.31;;;2.30;85.15
73457;BME280;61691;53.072;6.582;2024-01-15T12:18:17;99790.13;;;2.08;84.80
73457;BME280;61691;53.072;6.582;2024-01-15T12:20:45;99807.34;;;2.11;84.54
73457;BME280;61691;53.072;6.582;2024-01-15T12:23:15;99822.72;;;2.28;85.07
73457;BME280;61691;53.072;6.582;2024-01-15T12:25:44;99823.66;;;2.27;85.39
73457;BME280;61691;53.072;6.582;2024-01-15T12:28:11;99814.66;;;2.31;84.94
73457;BME280;61691;53.072;6.582;2024-01-15T12:30:38;99812.91;;;2.31;85.13
73457;BME280;61691;53.072;6.582;2024-01-15T12:33:07;99812.66;;;2.34;85.17
73457;BME280;61691;53.072;6.582;2024-01-15T12:35:36;99828.34;;;2.47;85.61
73457;BME280;61691;53.072;6.582;2024-01-15T12:38:03;99838.13;;;2.56;85.55
73457;BME280;61691;53.072;6.582;2024-01-15T12:40:31;99836.06;;;2.61;85.37
73457;BME280;61691;53.072;6.582;2024-01-15T12:43:05;99813.25;;;2.51;85.61
73457;BME280;61691;53.072;6.582;2024-01-15T12:45:33;99808.88;;;2.51;85.70
73457;BME280;61691;53.072;6.582;2024-01-15T12:48:02;99829.16;;;2.60;85.51
73457;BME280;61691;53.072;6.582;2024-01-15T12:50:30;99841.34;;;2.72;85.53
73457;BME280;61691;53.072;6.582;2024-01-15T12:52:59;99840.66;;;2.70;85.63
73457;BME280;61691;53.072;6.582;2024-01-15T12:55:26;99842.56;;;2.80;85.61
73457;BME280;61691;53.072;6.582;2024-01-15T12:57:53;99855.66;;;2.92;85.68
73457;BME280;61691;53.072;6.582;2024-01-15T13:00:22;99851.13;;;2.94;85.62
73457;BME280;61691;53.072;6.582;2024-01-15T13:02:48;99846.72;;;2.95;85.40
73457;BME280;61691;53.072;6.582;2024-01-15T13:05:16;99858.56;;;3.00;85.39
73457;BME280;61691;53.072;6.582;2024-01-15T13:07:44;99839.31;;;2.89;85.09
73457;BME280;61691;53.072;6.582;2024-01-15T13:10:11;99860.44;;;2.98;85.37
73457;BME280;61691;53.072;6.582;2024-01-15T13:12:40;99862.72;;;3.03;85.27
73457;BME280;61691;53.072;6.582;2024-01-15T13:15:08;99874.25;;;3.00;85.47
73457;BME280;61691;53.072;6.582;2024-01-15T13:17:40;99868.41;;;2.97;85.18
73457;BME280;61691;53.072;6.582;2024-01-15T13:20:09;99890.75;;;3.14;85.23